Terminal Aerodrome Forecast
Issued by NWS Chicago, IL

Home | Current Version | Previous Version | Text Only | Print | Product List | Glossary Off
Versions: 1 2 3 4 5 6 7 8 9 10 11 12 13 14 15 16 17 18 19 20 21 22 23 24 25 26 27

243
FTUS43 KLOT 211129
TAFRFD
TAF
KRFD 211129Z 2112/2212 34012KT P6SM BKN020 BKN100
     FM211230 34012KT P6SM BKN250
     FM212000 01009KT P6SM BKN200
     FM220400 05010KT P6SM SCT080 BKN150=

USA.gov is the U.S. government's official web portal to all federal, state and local government web resources and services.